createdAt,value
2022-08-03T00:01:35.788Z,5.85
2022-08-03T00:04:37.798Z,6.10
2022-08-03T00:07:41.210Z,6.43
2022-08-03T00:10:43.204Z,6.70
2022-08-03T00:13:45.257Z,6.13
2022-08-03T00:16:47.259Z,6.35
2022-08-03T00:19:49.280Z,6.60
2022-08-03T00:22:51.623Z,6.18
2022-08-03T00:25:53.770Z,6.20
2022-08-03T00:28:55.874Z,6.90
2022-08-03T00:31:59.386Z,6.10
2022-08-03T00:35:03.143Z,5.60
2022-08-03T00:38:11.965Z,7.25
2022-08-03T00:41:15.690Z,6.57
2022-08-03T00:44:17.811Z,6.18
2022-08-03T00:47:19.872Z,6.20
2022-08-03T00:50:25.519Z,5.83
2022-08-03T00:53:27.760Z,6.10
2022-08-03T00:56:29.827Z,6.13
2022-08-03T00:59:31.956Z,6.30
2022-08-03T01:02:34.117Z,6.30
2022-08-03T01:05:45.626Z,6.17
2022-08-03T01:08:54.574Z,5.97
2022-08-03T01:12:00.028Z,6.05
2022-08-03T01:15:26.558Z,7.32
2022-08-03T01:18:36.893Z,7.25
2022-08-03T01:21:46.826Z,6.73
2022-08-03T01:25:07.407Z,7.38
2022-08-03T01:28:25.513Z,6.78
2022-08-03T01:31:30.170Z,6.50
2022-08-03T01:34:34.552Z,7.57
2022-08-03T01:37:44.014Z,7.23
2022-08-03T01:40:47.028Z,7.43
2022-08-03T01:44:28.398Z,7.05
2022-08-03T01:47:13.191Z,8.13
2022-08-03T01:50:16.213Z,7.70
2022-08-03T01:53:20.624Z,6.93
2022-08-03T01:56:24.717Z,7.32
2022-08-03T01:59:27.930Z,7.65
2022-08-03T02:02:33.911Z,7.25
2022-08-03T02:05:39.203Z,7.30
2022-08-03T02:08:41.922Z,7.73
2022-08-03T02:11:45.079Z,7.93
2022-08-03T02:14:48.774Z,7.68
2022-08-03T02:17:51.469Z,7.63
2022-08-03T02:20:54.582Z,8.23
2022-08-03T02:23:56.743Z,8.13
2022-08-03T02:26:59.669Z,8.00
2022-08-03T02:30:07.519Z,7.38
2022-08-03T02:33:14.459Z,7.78
2022-08-03T02:36:17.439Z,8.45
2022-08-03T02:39:20.684Z,8.77
2022-08-03T02:42:24.456Z,7.75
2022-08-03T02:45:27.711Z,8.65
2022-08-03T02:48:31.779Z,7.78
2022-08-03T02:51:35.223Z,7.90
2022-08-03T02:54:38.226Z,7.33
2022-08-03T02:57:40.927Z,8.27
2022-08-03T03:00:44.289Z,8.30
2022-08-03T03:03:46.973Z,8.23
2022-08-03T03:06:50.683Z,7.90
2022-08-03T03:09:54.104Z,8.33
2022-08-03T03:12:56.744Z,8.20
2022-08-03T03:16:01.596Z,8.23
2022-08-03T03:19:03.708Z,8.45
2022-08-03T03:22:07.520Z,9.38
2022-08-03T03:25:10.253Z,8.57
2022-08-03T03:28:12.340Z,8.95
2022-08-03T03:31:14.429Z,8.68
2022-08-03T03:34:16.746Z,8.77
2022-08-03T03:37:18.819Z,8.85
2022-08-03T03:40:21.515Z,10.40
2022-08-03T03:43:23.981Z,9.10
2022-08-03T03:46:26.036Z,9.23
2022-08-03T03:49:28.383Z,9.82
2022-08-03T03:52:31.398Z,10.43
2022-08-03T03:55:33.504Z,9.47
2022-08-03T03:58:35.567Z,10.18
2022-08-03T04:01:38.456Z,9.13
2022-08-03T04:05:09.770Z,9.15
2022-08-03T04:08:36.812Z,10.00
2022-08-03T04:11:40.597Z,9.67
2022-08-03T04:14:44.012Z,10.10
2022-08-03T04:17:46.611Z,10.63
2022-08-03T04:20:49.789Z,10.13
2022-08-03T04:23:53.532Z,10.27
2022-08-03T04:26:56.176Z,10.60
2022-08-03T04:29:59.535Z,10.80
2022-08-03T04:33:02.525Z,11.30
2022-08-03T04:36:06.874Z,11.32
2022-08-03T04:39:12.589Z,10.07
2022-08-03T04:42:15.455Z,10.37
2022-08-03T04:45:17.979Z,10.82
2022-08-03T04:48:20.279Z,11.40
2022-08-03T04:51:22.521Z,11.00
2022-08-03T04:54:24.859Z,10.63
2022-08-03T04:57:26.848Z,9.73
2022-08-03T05:00:28.979Z,10.75
2022-08-03T05:03:31.960Z,10.02
2022-08-03T05:06:34.023Z,10.20
2022-08-03T05:09:50.055Z,10.88
2022-08-03T05:12:54.783Z,11.23
2022-08-03T05:15:56.843Z,11.27
2022-08-03T05:18:58.823Z,10.43
2022-08-03T05:22:00.928Z,10.27
2022-08-03T05:25:03.112Z,11.43
2022-08-03T05:28:05.172Z,10.00
2022-08-03T05:31:07.242Z,11.07
2022-08-03T05:34:09.339Z,9.57
2022-08-03T05:37:11.387Z,10.18
2022-08-03T05:40:13.485Z,10.27
2022-08-03T05:43:16.868Z,9.17
2022-08-03T05:46:18.898Z,10.63
2022-08-03T05:49:21.059Z,10.10
2022-08-03T05:52:23.375Z,10.52
2022-08-03T05:55:25.744Z,10.00
2022-08-03T05:58:29.954Z,8.67
2022-08-03T06:01:33.266Z,8.77
2022-08-03T06:04:35.399Z,9.55
2022-08-03T06:07:37.464Z,8.25
2022-08-03T06:10:39.503Z,8.77
2022-08-03T06:13:41.662Z,9.63
2022-08-03T06:16:43.698Z,9.30
2022-08-03T06:19:45.741Z,8.55
2022-08-03T06:22:51.342Z,9.50
2022-08-03T06:26:02.527Z,9.07
2022-08-03T06:29:04.531Z,8.47
2022-08-03T06:32:10.698Z,8.30
2022-08-03T06:35:12.885Z,9.80
2022-08-03T06:38:14.962Z,9.07
2022-08-03T06:41:17.015Z,9.57
2022-08-03T06:44:19.077Z,9.73
2022-08-03T06:47:21.125Z,9.40
2022-08-03T06:50:26.333Z,9.43
2022-08-03T06:53:28.536Z,9.48
2022-08-03T06:56:30.557Z,9.07
2022-08-03T07:00:10.364Z,8.30
2022-08-03T07:02:58.114Z,8.27
2022-08-03T07:06:00.950Z,8.35
2022-08-03T07:09:03.046Z,8.52
2022-08-03T07:12:06.629Z,8.80
2022-08-03T07:15:09.107Z,9.33
2022-08-03T07:18:24.668Z,8.73
2022-08-03T07:21:31.798Z,9.43
2022-08-03T07:24:33.809Z,9.77
2022-08-03T07:27:36.137Z,10.45
2022-08-03T07:30:38.264Z,8.17
2022-08-03T07:33:40.273Z,8.82
2022-08-03T07:36:42.337Z,8.77
2022-08-03T07:39:44.914Z,8.68
2022-08-03T07:42:46.970Z,8.90
2022-08-03T07:45:49.008Z,8.33
2022-08-03T07:48:51.029Z,8.85
2022-08-03T07:52:11.611Z,9.15
2022-08-03T07:55:13.859Z,8.07
2022-08-03T07:58:21.950Z,8.88
2022-08-03T08:01:26.173Z,9.40
2022-08-03T08:04:28.257Z,8.18
2022-08-03T08:07:30.255Z,8.40
2022-08-03T08:10:33.053Z,8.20
2022-08-03T08:13:35.260Z,8.40
2022-08-03T08:16:37.480Z,8.40
2022-08-03T08:19:39.557Z,8.13
2022-08-03T08:22:51.141Z,8.68
2022-08-03T08:25:54.312Z,7.90
2022-08-03T08:28:56.321Z,7.95
2022-08-03T08:31:58.446Z,7.33
2022-08-03T08:35:00.493Z,7.45
2022-08-03T08:38:04.079Z,7.80
2022-08-03T08:41:08.631Z,7.97
2022-08-03T08:44:10.786Z,7.45
2022-08-03T08:47:13.280Z,6.90
2022-08-03T08:50:27.735Z,6.68
2022-08-03T08:53:32.899Z,6.25
2022-08-03T08:56:35.880Z,7.40
2022-08-03T08:59:47.722Z,6.40
2022-08-03T09:02:50.751Z,6.13
2022-08-03T09:05:56.052Z,5.13
2022-08-03T09:08:58.489Z,5.85
2022-08-03T09:12:20.915Z,6.32
2022-08-03T09:15:24.031Z,6.70
2022-08-03T09:18:32.613Z,6.50
2022-08-03T09:21:35.200Z,6.28
2022-08-03T09:24:41.613Z,6.35
2022-08-03T09:27:44.973Z,6.40
2022-08-03T09:30:58.349Z,6.25
2022-08-03T09:34:07.912Z,6.80
2022-08-03T09:37:16.821Z,6.95
2022-08-03T09:40:34.541Z,6.45
2022-08-03T09:43:46.783Z,6.38
2022-08-03T09:46:50.061Z,6.63
2022-08-03T09:49:59.118Z,6.77
2022-08-03T09:53:02.204Z,7.38
2022-08-03T09:56:33.433Z,6.45
2022-08-03T09:59:29.922Z,6.78
2022-08-03T10:02:32.414Z,7.03
2022-08-03T10:05:34.492Z,6.37
2022-08-03T10:08:36.571Z,5.70
2022-08-03T10:11:41.991Z,6.15
2022-08-03T10:14:45.784Z,6.28
2022-08-03T10:17:47.926Z,5.25
2022-08-03T10:20:56.281Z,4.10
2022-08-03T10:23:58.395Z,5.45
2022-08-03T10:27:02.482Z,5.18
2022-08-03T10:30:06.616Z,4.93
2022-08-03T10:33:50.906Z,5.32
2022-08-03T10:36:41.456Z,4.63
2022-08-03T10:39:53.462Z,4.43
2022-08-03T10:42:56.437Z,4.70
2022-08-03T10:45:59.182Z,4.93
2022-08-03T10:49:01.490Z,5.00
2022-08-03T10:52:12.826Z,5.23
2022-08-03T10:55:48.775Z,4.80
2022-08-03T10:58:56.853Z,5.30
2022-08-03T11:02:01.093Z,5.03
2022-08-03T11:05:21.969Z,5.05
2022-08-03T11:08:25.471Z,4.60
2022-08-03T11:11:28.760Z,5.40
2022-08-03T11:14:45.477Z,4.80
2022-08-03T11:18:04.606Z,4.80
2022-08-03T11:21:09.247Z,5.30
2022-08-03T11:24:11.265Z,4.60
2022-08-03T11:27:23.753Z,4.63
2022-08-03T11:30:27.216Z,4.00
2022-08-03T11:33:30.656Z,4.35
2022-08-03T11:36:51.452Z,5.20
2022-08-03T11:39:54.805Z,3.87
2022-08-03T11:42:56.937Z,4.32
2022-08-03T11:46:04.043Z,3.90
2022-08-03T11:49:11.108Z,3.83
2022-08-03T11:52:13.791Z,3.55
2022-08-03T11:55:18.850Z,4.60
2022-08-03T11:59:01.932Z,4.35
2022-08-03T12:01:43.876Z,4.13
2022-08-03T12:05:00.253Z,4.20
2022-08-03T12:08:06.156Z,4.10
2022-08-03T12:11:10.470Z,4.23
2022-08-03T12:14:50.338Z,4.50
2022-08-03T12:17:39.825Z,4.10
2022-08-03T12:20:41.893Z,5.38
2022-08-03T12:23:43.912Z,4.05
2022-08-03T12:26:58.805Z,3.67
2022-08-03T12:30:02.087Z,3.47
2022-08-03T12:33:13.787Z,3.70
2022-08-03T12:36:15.839Z,3.40
2022-08-03T12:39:17.993Z,3.63
2022-08-03T12:42:20.304Z,3.50
2022-08-03T12:45:23.635Z,3.97
2022-08-03T12:48:25.691Z,3.50
2022-08-03T12:51:32.266Z,3.70
2022-08-03T12:54:36.162Z,3.72
2022-08-03T12:57:41.999Z,3.70
2022-08-03T13:00:55.355Z,3.25
2022-08-03T13:03:57.574Z,3.15
2022-08-03T13:07:02.525Z,3.90
2022-08-03T13:10:08.193Z,3.88
2022-08-03T13:13:10.832Z,3.10
2022-08-03T13:16:18.757Z,3.03
2022-08-03T13:19:21.278Z,2.70
2022-08-03T13:22:24.865Z,2.65
2022-08-03T13:25:26.877Z,2.60
2022-08-03T13:28:28.896Z,3.03
2022-08-03T13:31:31.568Z,3.08
2022-08-03T13:34:33.635Z,2.90
2022-08-03T13:37:36.284Z,2.92
2022-08-03T13:40:41.422Z,3.28
2022-08-03T13:43:43.853Z,2.73
2022-08-03T13:46:46.327Z,2.97
2022-08-03T13:50:00.227Z,2.88
2022-08-03T13:53:04.198Z,2.95
2022-08-03T13:56:06.203Z,3.00
2022-08-03T13:59:08.261Z,2.87
2022-08-03T14:02:10.388Z,2.85
2022-08-03T14:05:12.446Z,2.88
2022-08-03T14:08:14.490Z,3.20
2022-08-03T14:11:17.192Z,3.35
2022-08-03T14:14:19.218Z,3.40
2022-08-03T14:17:23.304Z,3.28
2022-08-03T14:20:38.609Z,3.15
2022-08-03T14:23:49.729Z,3.60
2022-08-03T14:26:51.717Z,3.97
2022-08-03T14:29:53.890Z,3.80
2022-08-03T14:33:00.443Z,3.60
2022-08-03T14:36:02.876Z,3.22
2022-08-03T14:39:04.993Z,3.17
2022-08-03T14:42:07.206Z,3.28
2022-08-03T14:45:16.038Z,3.70
2022-08-03T14:50:28.751Z,3.50
2022-08-03T14:51:51.503Z,3.58
2022-08-03T14:54:55.703Z,3.95
2022-08-03T14:57:57.768Z,3.30
2022-08-03T15:00:59.797Z,3.40
2022-08-03T15:04:01.950Z,3.30
2022-08-03T15:07:04.021Z,3.20
2022-08-03T15:10:06.151Z,3.10
2022-08-03T15:13:08.136Z,2.90
2022-08-03T15:16:10.217Z,2.97
2022-08-03T15:20:00.343Z,2.90
2022-08-03T15:22:35.259Z,2.78
2022-08-03T15:26:04.010Z,2.20
2022-08-03T15:28:59.755Z,2.92
2022-08-03T15:32:04.962Z,2.90
2022-08-03T15:35:09.441Z,2.80
2022-08-03T15:38:11.470Z,3.28
2022-08-03T15:41:14.014Z,2.67
2022-08-03T15:44:19.274Z,2.88
2022-08-03T15:47:21.633Z,2.70
2022-08-03T15:50:23.864Z,2.40
2022-08-03T15:53:25.895Z,2.95
2022-08-03T15:56:27.929Z,3.17
2022-08-03T15:59:30.076Z,3.40
2022-08-03T16:02:32.880Z,2.93
2022-08-03T16:05:34.864Z,2.65
2022-08-03T16:08:36.916Z,2.95
2022-08-03T16:11:38.949Z,3.70
2022-08-03T16:14:51.293Z,3.20
2022-08-03T16:17:54.649Z,3.40
2022-08-03T16:20:59.864Z,3.33
2022-08-03T16:24:03.670Z,3.50
2022-08-03T16:27:37.367Z,3.20
2022-08-03T16:30:32.481Z,3.55
2022-08-03T16:33:35.209Z,3.40
2022-08-03T16:36:37.261Z,3.08
2022-08-03T16:39:39.396Z,3.97
2022-08-03T16:42:41.511Z,3.25
2022-08-03T16:45:43.576Z,3.25
2022-08-03T16:48:45.656Z,3.40
2022-08-03T16:51:50.645Z,3.20
2022-08-03T16:54:55.022Z,3.78
2022-08-03T16:57:59.886Z,3.08
2022-08-03T17:01:20.759Z,3.30
2022-08-03T17:04:24.757Z,4.07
2022-08-03T17:07:26.873Z,3.60
2022-08-03T17:10:32.532Z,4.03
2022-08-03T17:13:40.049Z,3.78
2022-08-03T17:16:52.440Z,3.30
2022-08-03T17:19:56.076Z,3.03
2022-08-03T17:23:19.208Z,3.15
2022-08-03T17:26:31.557Z,3.47
2022-08-03T17:29:37.227Z,3.17
2022-08-03T17:32:57.220Z,3.40
2022-08-03T17:36:00.167Z,3.63
2022-08-03T17:39:04.516Z,3.40
2022-08-03T17:42:30.343Z,3.90
2022-08-03T17:45:52.253Z,3.60
2022-08-03T17:48:54.203Z,3.40
2022-08-03T17:51:58.978Z,3.90
2022-08-03T17:55:58.615Z,4.03
2022-08-03T17:58:41.335Z,3.30
2022-08-03T18:02:19.909Z,3.65
2022-08-03T18:06:10.723Z,3.05
2022-08-03T18:08:55.198Z,3.00
2022-08-03T18:11:58.737Z,3.50
2022-08-03T18:15:08.414Z,3.00
2022-08-03T18:18:11.354Z,3.50
2022-08-03T18:21:17.164Z,2.90
2022-08-03T18:24:19.894Z,3.60
2022-08-03T18:27:22.820Z,3.33
2022-08-03T18:30:27.564Z,3.80
2022-08-03T18:34:17.132Z,3.60
2022-08-03T18:36:56.018Z,3.78
2022-08-03T18:39:58.381Z,4.07
2022-08-03T18:43:08.828Z,3.80
2022-08-03T18:46:16.986Z,3.78
2022-08-03T18:49:41.433Z,3.70
2022-08-03T18:52:53.097Z,3.58
2022-08-03T18:56:03.300Z,3.10
2022-08-03T18:59:09.823Z,3.53
2022-08-03T19:02:27.057Z,4.13
2022-08-03T19:05:57.786Z,3.35
2022-08-03T19:08:59.819Z,3.50
2022-08-03T19:12:14.443Z,4.30
2022-08-03T19:15:36.454Z,4.00
2022-08-03T19:18:47.401Z,4.00
2022-08-03T19:21:51.502Z,3.80
2022-08-03T19:24:55.240Z,3.83
2022-08-03T19:28:00.313Z,3.87
2022-08-03T19:31:06.283Z,3.80
2022-08-03T19:34:08.692Z,4.50
2022-08-03T19:37:12.286Z,3.85
2022-08-03T19:40:19.708Z,3.70
2022-08-03T19:43:25.087Z,3.50
2022-08-03T19:46:41.332Z,3.83
2022-08-03T19:50:05.192Z,4.00
2022-08-03T19:53:08.696Z,4.22
2022-08-03T19:56:15.001Z,4.03
2022-08-03T19:59:19.241Z,4.67
2022-08-03T20:02:26.173Z,4.18
2022-08-03T20:05:30.004Z,4.10
2022-08-03T20:08:48.218Z,4.20
2022-08-03T20:11:53.755Z,4.20
2022-08-03T20:14:59.250Z,4.20
2022-08-03T20:18:01.251Z,3.70
2022-08-03T20:21:05.373Z,3.70
2022-08-03T20:24:24.287Z,3.67
2022-08-03T20:30:49.430Z,4.03
2022-08-03T20:33:54.867Z,3.92
2022-08-03T20:36:57.861Z,3.85
2022-08-03T20:40:02.331Z,4.10
2022-08-03T20:43:04.768Z,4.53
2022-08-03T20:46:30.121Z,3.77
2022-08-03T20:49:29.416Z,4.00
2022-08-03T20:52:49.867Z,4.32
2022-08-03T20:56:02.363Z,3.90
2022-08-03T20:59:06.174Z,3.92
2022-08-03T21:02:08.944Z,3.67
2022-08-03T21:05:11.760Z,4.10
2022-08-03T21:08:17.578Z,3.58
2022-08-03T21:11:24.918Z,4.57
2022-08-03T21:13:14.223Z,3.85
2022-08-03T21:14:43.335Z,3.95
2022-08-03T21:17:46.999Z,3.80
2022-08-03T21:20:50.129Z,3.70
2022-08-03T21:23:53.961Z,4.22
2022-08-03T21:26:56.165Z,3.70
2022-08-03T21:30:00.885Z,4.10
2022-08-03T21:33:06.600Z,4.07
2022-08-03T21:36:08.791Z,3.78
2022-08-03T21:39:11.492Z,4.18
2022-08-03T21:42:13.701Z,4.32
2022-08-03T21:45:17.640Z,4.28
2022-08-03T21:48:21.616Z,4.40
2022-08-03T21:51:24.528Z,4.57
2022-08-03T21:54:29.380Z,4.63
2022-08-03T21:57:33.593Z,4.53
2022-08-03T22:00:42.689Z,4.70
2022-08-03T22:03:53.860Z,4.60
2022-08-03T22:06:56.411Z,4.78
2022-08-03T22:09:59.491Z,4.53
2022-08-03T22:13:01.616Z,4.75
2022-08-03T22:16:04.031Z,4.60
2022-08-03T22:19:06.021Z,4.20
2022-08-03T22:22:09.360Z,4.75
2022-08-03T22:25:13.559Z,4.20
2022-08-03T22:28:15.875Z,4.28
2022-08-03T22:31:30.798Z,4.68
2022-08-03T22:34:42.590Z,4.63
2022-08-03T22:37:45.455Z,5.25
2022-08-03T22:40:50.945Z,5.13
2022-08-03T22:43:53.250Z,5.80
2022-08-03T22:46:55.818Z,5.40
2022-08-03T22:50:31.692Z,5.30
2022-08-03T22:53:21.531Z,4.80
2022-08-03T22:56:23.540Z,5.30
2022-08-03T22:59:40.097Z,4.93
2022-08-03T23:02:44.495Z,5.50
2022-08-03T23:06:00.875Z,5.27
2022-08-03T23:09:10.178Z,5.45
2022-08-03T23:12:17.451Z,5.38
2022-08-03T23:15:19.667Z,5.10
2022-08-03T23:18:22.951Z,5.30
2022-08-03T23:22:01.025Z,5.20
2022-08-03T23:24:48.284Z,4.80
2022-08-03T23:28:05.307Z,5.15
2022-08-03T23:31:08.127Z,5.40
2022-08-03T23:34:30.457Z,5.40
2022-08-03T23:37:33.247Z,4.73
2022-08-03T23:40:35.267Z,5.65
2022-08-03T23:43:50.852Z,5.60
2022-08-03T23:46:54.684Z,5.40
2022-08-03T23:49:56.795Z,5.75
2022-08-03T23:53:16.965Z,4.80
2022-08-03T23:56:24.057Z,5.00
2022-08-03T23:59:44.549Z,4.80
